Portada
METAR-TAF:

METAR-TAF

Aeroports :

Ghriss, Algèria

latitud: 35-12N, longitud: 000-08E, altitud: 514 m

Observació

L'informe es va fer fa 47 minuts, a les 09:00 UTC
Vent 2 kt del Sud-Oest
Temperatura 24°C
Humitat 89%
Pressió 1016 hPa
Visibilitat: 8000 m

METAR: DAOV 210900Z 23002KT 8000 NSC 24/22 Q1016

Hora: 10:47 (09:47 UTC)

Pronòstic

L'informe es va fer fa 1 hora i 47 minuts, a les 08:00 UTC
Pronòstic vàlid del 21 a les 09 UTC al 21 a les 18 UTC
Vent 2 kt amb direcció variable
Visibilitat: 8000 m
Núvols disperses a una alçada de 2600 ft
Núvols disperses a una alçada de 10000 ft
Probabilitat 40% :
Temporalment
entre i UTC
Temporalment
l' 21 a les 09 UTC al 21 a les 15 UTC
Visibilitat: 5000 m
Escasses núvols a una alçada de 3000 ft, Cumulonimbus.
tempesta, pluja

TAF: DAOV 210800Z 2109/2118 VRB02KT 8000 SCT026 SCT100 PROB40 TEMPO TEMPO 2109/2115 5000 TSRA FEW030CB

Observacions i pronòstics meteorològics de més de 4000 aeroports (METAR i TAF).

Les estacions disponibles són els punts grocs i vermells al mapa.

Posi el ratolí al punt desitjat per veure el nom de l'estació.

Feu clic per veure les observacions i els pronòstics meteorològics.

Per canviar el mapa: feu clic els botons verds amb una creu de color negre per apropar; al botó verd amb un guió per allunyar la imatge; o en les fletxes verdes per a mapes adjacents.


METAR-TAF: